createdAt,value
2022-12-18T00:03:38.775Z,16.17
2022-12-18T00:08:43.321Z,13.40
2022-12-18T00:13:48.001Z,13.77
2022-12-18T00:18:54.942Z,14.37
2022-12-18T00:23:58.808Z,15.53
2022-12-18T00:29:05.699Z,15.90
2022-12-18T00:34:12.199Z,16.67
2022-12-18T00:39:17.168Z,16.03
2022-12-18T00:44:21.934Z,14.23
2022-12-18T00:49:26.893Z,16.77
2022-12-18T00:54:30.442Z,15.73
2022-12-18T00:59:33.902Z,13.83
2022-12-18T01:04:39.124Z,14.97
2022-12-18T01:09:42.794Z,14.77
2022-12-18T01:14:46.592Z,14.20
2022-12-18T01:19:53.207Z,14.33
2022-12-18T01:24:56.650Z,14.10
2022-12-18T01:30:00.211Z,16.33
2022-12-18T01:35:06.528Z,13.90
2022-12-18T01:40:11.029Z,15.43
2022-12-18T01:45:28.771Z,15.07
2022-12-18T01:50:38.056Z,13.63
2022-12-18T01:55:45.594Z,13.27
2022-12-18T02:00:50.402Z,14.00
2022-12-18T02:06:07.220Z,14.27
2022-12-18T02:11:17.786Z,14.77
2022-12-18T02:16:27.090Z,14.13
2022-12-18T02:21:39.805Z,13.63
2022-12-18T02:26:48.754Z,14.33
2022-12-18T02:31:56.715Z,13.27
2022-12-18T02:37:04.283Z,14.63
2022-12-18T02:42:10.068Z,14.37
2022-12-18T02:47:15.778Z,12.93
2022-12-18T02:52:27.418Z,13.20
2022-12-18T02:57:39.543Z,12.60
2022-12-18T03:02:50.671Z,12.80
2022-12-18T03:08:00.001Z,15.50
2022-12-18T03:13:12.005Z,15.33
2022-12-18T03:18:19.801Z,15.13
2022-12-18T03:23:26.427Z,16.83
2022-12-18T03:28:34.346Z,14.20
2022-12-18T03:33:44.649Z,16.90
2022-12-18T03:38:48.376Z,19.20
2022-12-18T03:44:02.739Z,14.47
2022-12-18T03:49:13.699Z,19.07
2022-12-18T03:54:19.688Z,19.87
2022-12-18T03:59:34.358Z,18.70
2022-12-18T04:04:39.800Z,21.10
2022-12-18T04:09:45.877Z,25.77
2022-12-18T04:14:52.137Z,24.53
2022-12-18T04:19:55.838Z,27.83
2022-12-18T04:25:01.353Z,29.70
2022-12-18T04:30:14.522Z,28.47
2022-12-18T04:35:18.642Z,30.17
2022-12-18T04:40:22.621Z,32.20
2022-12-18T04:45:28.621Z,31.33
2022-12-18T04:50:32.795Z,35.43
2022-12-18T04:55:36.295Z,34.63
2022-12-18T05:00:41.181Z,31.90
2022-12-18T05:05:44.936Z,38.97
2022-12-18T05:10:48.739Z,45.80
2022-12-18T05:15:55.399Z,39.10
2022-12-18T05:20:59.278Z,41.07
2022-12-18T05:26:05.895Z,46.47
2022-12-18T05:31:11.119Z,51.20
2022-12-18T05:36:14.794Z,49.00
2022-12-18T05:41:18.298Z,53.23
2022-12-18T05:46:23.371Z,59.90
2022-12-18T05:51:27.038Z,62.43
2022-12-18T05:56:30.402Z,53.47
2022-12-18T06:01:35.462Z,58.17
2022-12-18T06:06:39.265Z,60.53
2022-12-18T06:11:42.920Z,60.93
2022-12-18T06:16:47.722Z,63.93
2022-12-18T06:21:51.856Z,59.90
2022-12-18T06:26:55.325Z,65.03
2022-12-18T06:32:00.903Z,76.13
2022-12-18T06:37:05.432Z,98.00
2022-12-18T06:42:09.046Z,73.43
2022-12-18T06:47:14.258Z,78.33
2022-12-18T06:52:17.788Z,87.53
2022-12-18T06:57:21.306Z,79.73
2022-12-18T07:02:26.244Z,76.87
2022-12-18T07:07:29.803Z,74.10
2022-12-18T07:12:33.218Z,74.83
2022-12-18T07:17:38.172Z,71.33
2022-12-18T07:22:41.650Z,58.93
2022-12-18T07:27:45.129Z,67.90
2022-12-18T07:32:50.296Z,73.33
2022-12-18T07:37:53.942Z,65.00
2022-12-18T07:42:57.364Z,71.30
2022-12-18T07:48:02.390Z,62.90
2022-12-18T07:53:06.191Z,86.43
2022-12-18T07:58:10.301Z,84.77
2022-12-18T08:03:16.469Z,92.37
2022-12-18T08:08:19.959Z,88.20
2022-12-18T08:13:24.301Z,75.97
2022-12-18T08:18:29.671Z,79.07
2022-12-18T08:23:35.094Z,76.80
2022-12-18T08:28:42.720Z,82.50
2022-12-18T08:33:48.108Z,79.47
2022-12-18T08:38:51.788Z,70.70
2022-12-18T08:44:12.510Z,79.70
2022-12-18T08:49:17.370Z,72.80
2022-12-18T08:54:21.825Z,71.07
2022-12-18T08:59:25.592Z,84.57
2022-12-18T09:04:30.479Z,72.73
2022-12-18T09:09:34.119Z,75.17
2022-12-18T09:14:38.514Z,89.90
2022-12-18T09:19:43.399Z,77.90
2022-12-18T09:24:46.825Z,86.30
2022-12-18T09:29:50.392Z,108.87
2022-12-18T09:34:55.185Z,175.23
2022-12-18T09:39:58.615Z,79.90
2022-12-18T09:45:03.208Z,64.70
2022-12-18T09:50:22.806Z,64.13
2022-12-18T09:55:36.617Z,57.37
2022-12-18T10:00:41.094Z,46.47
2022-12-18T10:05:52.264Z,43.00
2022-12-18T10:10:59.929Z,40.97
2022-12-18T10:16:13.403Z,33.33
2022-12-18T10:21:23.909Z,35.00
2022-12-18T10:26:27.471Z,35.00
2022-12-18T10:31:30.914Z,32.17
2022-12-18T10:36:36.140Z,27.53
2022-12-18T10:41:39.711Z,20.00
2022-12-18T10:46:43.664Z,16.30
2022-12-18T10:51:48.745Z,12.53
2022-12-18T10:56:52.378Z,12.23
2022-12-18T11:01:57.839Z,11.93
2022-12-18T11:07:04.934Z,16.30
2022-12-18T11:12:18.226Z,15.30
2022-12-18T11:17:25.924Z,14.33
2022-12-18T11:22:33.976Z,18.03
2022-12-18T11:27:37.513Z,15.50
2022-12-18T11:32:43.154Z,17.53
2022-12-18T11:37:53.193Z,16.47
2022-12-18T11:43:03.494Z,17.00
2022-12-18T11:48:19.096Z,16.27
2022-12-18T11:53:25.254Z,22.13
2022-12-18T11:58:39.945Z,17.40
2022-12-18T12:04:21.620Z,21.30
2022-12-18T12:09:33.605Z,16.80
2022-12-18T12:14:51.986Z,19.10
2022-12-18T12:20:04.561Z,17.07
2022-12-18T12:25:34.248Z,18.77
2022-12-18T12:30:50.882Z,16.70
2022-12-18T12:36:02.338Z,17.77
2022-12-18T12:41:31.519Z,18.73
2022-12-18T12:46:39.490Z,17.67
2022-12-18T12:51:47.097Z,18.53
2022-12-18T12:56:57.091Z,17.87
2022-12-18T13:02:07.904Z,19.90
2022-12-18T13:07:18.735Z,18.50
2022-12-18T13:12:41.339Z,17.07
2022-12-18T13:17:46.182Z,18.00
2022-12-18T13:22:51.958Z,18.10
2022-12-18T13:28:04.756Z,19.33
2022-12-18T13:33:56.259Z,23.43
2022-12-18T13:39:30.024Z,20.80
2022-12-18T13:44:41.544Z,21.00
2022-12-18T13:49:46.839Z,20.47
2022-12-18T13:54:55.166Z,18.90
2022-12-18T14:00:21.836Z,18.63
2022-12-18T14:05:27.561Z,17.63
2022-12-18T14:10:47.619Z,22.73
2022-12-18T14:15:54.732Z,20.50
2022-12-18T14:21:02.668Z,21.73
2022-12-18T14:26:24.032Z,23.73
2022-12-18T14:31:33.335Z,27.53
2022-12-18T14:36:37.109Z,25.23
2022-12-18T14:41:40.633Z,27.30
2022-12-18T14:46:46.924Z,28.87
2022-12-18T14:51:51.988Z,28.07
2022-12-18T14:57:02.300Z,31.33
2022-12-18T15:02:15.980Z,30.20
2022-12-18T15:07:22.136Z,34.33
2022-12-18T15:12:32.630Z,35.70
2022-12-18T15:17:43.614Z,36.00
2022-12-18T15:22:50.071Z,34.50
2022-12-18T15:27:54.050Z,33.03
2022-12-18T15:33:25.969Z,33.97
2022-12-18T15:38:29.743Z,36.43
2022-12-18T15:43:36.391Z,41.40
2022-12-18T15:48:43.534Z,33.40
2022-12-18T15:53:47.679Z,34.30
2022-12-18T15:58:51.157Z,32.80
2022-12-18T16:03:56.590Z,30.37
2022-12-18T16:09:00.670Z,31.07
2022-12-18T16:14:04.405Z,33.90
2022-12-18T16:19:09.801Z,33.07
2022-12-18T16:24:17.255Z,30.63
2022-12-18T16:29:25.799Z,28.00
2022-12-18T16:34:35.413Z,28.73
2022-12-18T16:39:40.665Z,31.50
2022-12-18T16:44:45.331Z,28.43
2022-12-18T16:49:53.008Z,33.23
2022-12-18T16:54:56.911Z,29.73
2022-12-18T17:00:05.064Z,30.30
2022-12-18T17:05:10.997Z,30.53
2022-12-18T17:10:15.831Z,29.17
2022-12-18T17:15:19.445Z,32.07
2022-12-18T17:20:25.096Z,28.53
2022-12-18T17:25:28.911Z,31.07
2022-12-18T17:30:32.355Z,30.83
2022-12-18T17:35:37.653Z,33.83
2022-12-18T17:40:46.040Z,31.80
2022-12-18T17:46:09.389Z,29.57
2022-12-18T17:51:13.717Z,32.23
2022-12-18T17:56:20.081Z,29.63
2022-12-18T18:01:26.845Z,28.87
2022-12-18T18:06:30.391Z,25.00
2022-12-18T18:11:53.291Z,29.90
2022-12-18T18:17:04.724Z,31.73
2022-12-18T18:22:08.615Z,33.63
2022-12-18T18:27:12.384Z,34.93
2022-12-18T18:32:17.381Z,30.73
2022-12-18T18:37:21.024Z,33.40
2022-12-18T18:42:24.501Z,34.10
2022-12-18T18:47:30.697Z,30.90
2022-12-18T18:52:34.247Z,30.60
2022-12-18T18:57:38.436Z,40.20
2022-12-18T19:02:43.420Z,35.50
2022-12-18T19:07:47.385Z,36.33
2022-12-18T19:13:07.925Z,34.30
2022-12-18T19:18:13.203Z,34.40
2022-12-18T19:23:16.705Z,35.13
2022-12-18T19:28:26.015Z,36.57
2022-12-18T19:33:48.191Z,35.63
2022-12-18T19:38:52.492Z,29.80
2022-12-18T19:43:56.147Z,34.63
2022-12-18T19:49:01.938Z,33.20
2022-12-18T19:54:07.071Z,32.73
2022-12-18T19:59:11.184Z,38.10
2022-12-18T20:04:16.072Z,33.47
2022-12-18T20:09:20.502Z,35.63
2022-12-18T20:14:25.063Z,35.50
2022-12-18T20:19:30.017Z,30.20
2022-12-18T20:24:33.532Z,36.23
2022-12-18T20:29:36.887Z,34.60
2022-12-18T20:34:42.285Z,36.93
2022-12-18T20:39:46.658Z,36.87
2022-12-18T20:44:50.870Z,34.17
2022-12-18T20:49:56.469Z,37.63
2022-12-18T20:54:59.841Z,37.13
2022-12-18T21:00:08.485Z,35.20
2022-12-18T21:05:13.867Z,38.97
2022-12-18T21:10:17.315Z,38.10
2022-12-18T21:15:26.811Z,34.13
2022-12-18T21:20:33.465Z,42.50
2022-12-18T21:25:37.090Z,36.57
2022-12-18T21:30:41.015Z,36.80
2022-12-18T21:35:46.061Z,39.23
2022-12-18T21:40:49.433Z,42.13
2022-12-18T21:45:52.929Z,36.33
2022-12-18T21:50:57.755Z,42.13
2022-12-18T21:56:01.800Z,40.40
2022-12-18T22:01:05.300Z,46.37
2022-12-18T22:06:10.488Z,44.53
2022-12-18T22:11:14.644Z,50.67
2022-12-18T22:16:19.636Z,56.90
2022-12-18T22:21:29.278Z,49.67
2022-12-18T22:26:39.466Z,53.30
2022-12-18T22:31:43.689Z,49.77
2022-12-18T22:36:49.714Z,58.77
2022-12-18T22:41:53.718Z,58.73
2022-12-18T22:47:06.954Z,55.30
2022-12-18T22:52:12.458Z,64.50
2022-12-18T22:57:16.965Z,50.90
2022-12-18T23:02:21.029Z,60.27
2022-12-18T23:07:25.989Z,58.73
2022-12-18T23:12:29.477Z,53.97
2022-12-18T23:17:32.974Z,56.13
2022-12-18T23:22:38.021Z,54.63
2022-12-18T23:27:41.398Z,50.20
2022-12-18T23:32:44.757Z,48.03
2022-12-18T23:37:58.676Z,53.00
2022-12-18T23:43:03.078Z,50.53
2022-12-18T23:48:06.460Z,46.07
2022-12-18T23:53:11.944Z,44.27
2022-12-18T23:58:18.530Z,43.70
